sensor_id;sensor_type;location;lat;lon;timestamp;temperature;humidity
2010;DHT22;1008;47.404;8.502;2023-02-28T00:00:37;0.50;99.90
2010;DHT22;1008;47.404;8.502;2023-02-28T00:03:04;0.50;99.90
2010;DHT22;1008;47.404;8.502;2023-02-28T00:05:31;0.40;99.90
2010;DHT22;1008;47.404;8.502;2023-02-28T00:07:59;0.40;99.90
2010;DHT22;1008;47.404;8.502;2023-02-28T00:10:29;0.50;99.90
2010;DHT22;1008;47.404;8.502;2023-02-28T00:12:59;0.50;99.90
2010;DHT22;1008;47.404;8.502;2023-02-28T00:15:26;0.50;99.90
2010;DHT22;1008;47.404;8.502;2023-02-28T00:17:53;0.60;99.90
2010;DHT22;1008;47.404;8.502;2023-02-28T00:20:20;0.40;99.90
2010;DHT22;1008;47.404;8.502;2023-02-28T00:22:49;0.40;99.90
2010;DHT22;1008;47.404;8.502;2023-02-28T00:25:19;0.50;99.90
2010;DHT22;1008;47.404;8.502;2023-02-28T00:27:47;0.50;99.90
2010;DHT22;1008;47.404;8.502;2023-02-28T00:30:17;0.50;99.90
2010;DHT22;1008;47.404;8.502;2023-02-28T00:32:44;0.60;99.90
2010;DHT22;1008;47.404;8.502;2023-02-28T00:35:11;0.60;99.90
2010;DHT22;1008;47.404;8.502;2023-02-28T00:37:39;0.70;99.90
2010;DHT22;1008;47.404;8.502;2023-02-28T00:40:06;0.60;99.90
2010;DHT22;1008;47.404;8.502;2023-02-28T00:42:36;0.60;99.90
2010;DHT22;1008;47.404;8.502;2023-02-28T00:45:04;0.60;99.90
2010;DHT22;1008;47.404;8.502;2023-02-28T00:47:31;0.60;99.90
2010;DHT22;1008;47.404;8.502;2023-02-28T00:49:58;0.70;99.90
2010;DHT22;1008;47.404;8.502;2023-02-28T00:52:25;0.60;99.90
2010;DHT22;1008;47.404;8.502;2023-02-28T00:54:51;0.60;99.90
2010;DHT22;1008;47.404;8.502;2023-02-28T00:57:18;0.70;99.90
2010;DHT22;1008;47.404;8.502;2023-02-28T00:59:46;0.60;99.90
2010;DHT22;1008;47.404;8.502;2023-02-28T01:02:13;0.70;99.90
2010;DHT22;1008;47.404;8.502;2023-02-28T01:04:40;0.60;99.90
2010;DHT22;1008;47.404;8.502;2023-02-28T01:07:06;0.80;99.90
2010;DHT22;1008;47.404;8.502;2023-02-28T01:09:33;0.60;99.90
2010;DHT22;1008;47.404;8.502;2023-02-28T01:12:00;0.70;99.90
2010;DHT22;1008;47.404;8.502;2023-02-28T01:14:27;0.60;99.90
2010;DHT22;1008;47.404;8.502;2023-02-28T01:16:55;0.60;99.90
2010;DHT22;1008;47.404;8.502;2023-02-28T01:19:22;0.70;99.90
2010;DHT22;1008;47.404;8.502;2023-02-28T01:21:48;0.70;99.90
2010;DHT22;1008;47.404;8.502;2023-02-28T01:24:15;0.70;99.90
2010;DHT22;1008;47.404;8.502;2023-02-28T01:26:42;0.70;99.90
2010;DHT22;1008;47.404;8.502;2023-02-28T01:29:09;0.70;99.90
2010;DHT22;1008;47.404;8.502;2023-02-28T01:31:36;0.60;99.90
2010;DHT22;1008;47.404;8.502;2023-02-28T01:34:04;0.70;99.90
2010;DHT22;1008;47.404;8.502;2023-02-28T01:36:30;0.70;99.90
2010;DHT22;1008;47.404;8.502;2023-02-28T01:38:57;0.60;99.90
2010;DHT22;1008;47.404;8.502;2023-02-28T01:41:26;0.70;99.90
2010;DHT22;1008;47.404;8.502;2023-02-28T01:44:02;0.50;99.90
2010;DHT22;1008;47.404;8.502;2023-02-28T01:46:30;0.70;99.90
2010;DHT22;1008;47.404;8.502;2023-02-28T01:49:02;0.50;99.90
2010;DHT22;1008;47.404;8.502;2023-02-28T01:51:35;0.70;99.90
2010;DHT22;1008;47.404;8.502;2023-02-28T01:54:06;0.70;99.90
2010;DHT22;1008;47.404;8.502;2023-02-28T01:56:42;0.80;99.90
2010;DHT22;1008;47.404;8.502;2023-02-28T01:59:12;0.80;99.90
2010;DHT22;1008;47.404;8.502;2023-02-28T02:01:40;0.80;99.90
2010;DHT22;1008;47.404;8.502;2023-02-28T02:04:08;0.70;99.90
2010;DHT22;1008;47.404;8.502;2023-02-28T02:06:38;0.60;99.90
2010;DHT22;1008;47.404;8.502;2023-02-28T02:09:06;0.80;99.90
2010;DHT22;1008;47.404;8.502;2023-02-28T02:11:34;0.70;99.90
2010;DHT22;1008;47.404;8.502;2023-02-28T02:17:07;0.80;99.90
2010;DHT22;1008;47.404;8.502;2023-02-28T02:19:56;0.70;99.90
2010;DHT22;1008;47.404;8.502;2023-02-28T02:25:34;0.70;99.90
2010;DHT22;1008;47.404;8.502;2023-02-28T02:31:26;0.70;99.90
2010;DHT22;1008;47.404;8.502;2023-02-28T02:34:21;0.70;99.90
2010;DHT22;1008;47.404;8.502;2023-02-28T02:36:56;0.70;99.90
2010;DHT22;1008;47.404;8.502;2023-02-28T02:39:30;0.60;99.90
2010;DHT22;1008;47.404;8.502;2023-02-28T02:42:00;0.40;99.90
2010;DHT22;1008;47.404;8.502;2023-02-28T02:44:31;0.70;99.90
2010;DHT22;1008;47.404;8.502;2023-02-28T02:47:04;0.70;99.90
2010;DHT22;1008;47.404;8.502;2023-02-28T02:49:36;0.70;99.90
2010;DHT22;1008;47.404;8.502;2023-02-28T02:52:07;0.60;99.90
2010;DHT22;1008;47.404;8.502;2023-02-28T02:54:36;0.60;99.90
2010;DHT22;1008;47.404;8.502;2023-02-28T02:57:06;0.50;99.90
2010;DHT22;1008;47.404;8.502;2023-02-28T02:59:35;0.60;99.90
2010;DHT22;1008;47.404;8.502;2023-02-28T03:02:06;0.60;99.90
2010;DHT22;1008;47.404;8.502;2023-02-28T03:04:40;0.70;99.90
2010;DHT22;1008;47.404;8.502;2023-02-28T03:07:08;0.50;99.90
2010;DHT22;1008;47.404;8.502;2023-02-28T03:09:35;0.60;99.90
2010;DHT22;1008;47.404;8.502;2023-02-28T03:12:03;0.70;99.90
2010;DHT22;1008;47.404;8.502;2023-02-28T03:14:46;0.70;99.90
2010;DHT22;1008;47.404;8.502;2023-02-28T03:17:35;0.80;99.90
2010;DHT22;1008;47.404;8.502;2023-02-28T03:20:15;0.70;99.90
2010;DHT22;1008;47.404;8.502;2023-02-28T03:22:51;0.60;99.90
2010;DHT22;1008;47.404;8.502;2023-02-28T03:25:22;0.60;99.90
2010;DHT22;1008;47.404;8.502;2023-02-28T03:28:00;0.70;99.90
2010;DHT22;1008;47.404;8.502;2023-02-28T03:30:37;0.70;99.90
2010;DHT22;1008;47.404;8.502;2023-02-28T03:33:09;0.90;99.90
2010;DHT22;1008;47.404;8.502;2023-02-28T03:35:42;0.70;99.90
2010;DHT22;1008;47.404;8.502;2023-02-28T03:38:14;0.70;99.90
2010;DHT22;1008;47.404;8.502;2023-02-28T03:40:45;0.70;99.90
2010;DHT22;1008;47.404;8.502;2023-02-28T03:43:19;0.70;99.90
2010;DHT22;1008;47.404;8.502;2023-02-28T03:45:50;0.80;99.90
2010;DHT22;1008;47.404;8.502;2023-02-28T03:48:21;0.70;99.90
2010;DHT22;1008;47.404;8.502;2023-02-28T03:50:53;0.60;99.90
2010;DHT22;1008;47.404;8.502;2023-02-28T03:53:25;0.70;99.90
2010;DHT22;1008;47.404;8.502;2023-02-28T03:55:56;0.70;99.90
2010;DHT22;1008;47.404;8.502;2023-02-28T03:58:29;0.70;99.90
2010;DHT22;1008;47.404;8.502;2023-02-28T04:01:00;0.70;99.90
2010;DHT22;1008;47.404;8.502;2023-02-28T04:03:34;0.70;99.90
2010;DHT22;1008;47.404;8.502;2023-02-28T04:06:02;0.70;99.90
2010;DHT22;1008;47.404;8.502;2023-02-28T04:08:29;0.60;99.90
2010;DHT22;1008;47.404;8.502;2023-02-28T04:11:06;0.60;99.90
2010;DHT22;1008;47.404;8.502;2023-02-28T04:13:35;0.60;99.90
2010;DHT22;1008;47.404;8.502;2023-02-28T04:16:01;0.70;99.90
2010;DHT22;1008;47.404;8.502;2023-02-28T04:18:37;0.70;99.90
2010;DHT22;1008;47.404;8.502;2023-02-28T04:21:05;0.70;99.90
2010;DHT22;1008;47.404;8.502;2023-02-28T04:23:32;0.70;99.90
2010;DHT22;1008;47.404;8.502;2023-02-28T04:25:59;0.70;99.90
2010;DHT22;1008;47.404;8.502;2023-02-28T04:28:26;0.60;99.90
2010;DHT22;1008;47.404;8.502;2023-02-28T04:30:56;0.50;99.90
2010;DHT22;1008;47.404;8.502;2023-02-28T04:33:23;0.50;99.90
2010;DHT22;1008;47.404;8.502;2023-02-28T04:35:58;0.60;99.90
2010;DHT22;1008;47.404;8.502;2023-02-28T04:38:26;0.70;99.90
2010;DHT22;1008;47.404;8.502;2023-02-28T04:40:53;0.60;99.90
2010;DHT22;1008;47.404;8.502;2023-02-28T04:43:20;0.60;99.90
2010;DHT22;1008;47.404;8.502;2023-02-28T04:45:46;0.50;99.90
2010;DHT22;1008;47.404;8.502;2023-02-28T04:48:13;0.60;99.90
2010;DHT22;1008;47.404;8.502;2023-02-28T04:50:40;0.50;99.90
2010;DHT22;1008;47.404;8.502;2023-02-28T04:53:07;0.50;99.90
2010;DHT22;1008;47.404;8.502;2023-02-28T04:55:35;0.40;99.90
2010;DHT22;1008;47.404;8.502;2023-02-28T04:58:01;0.60;99.90
2010;DHT22;1008;47.404;8.502;2023-02-28T05:00:28;0.60;99.90
2010;DHT22;1008;47.404;8.502;2023-02-28T05:02:55;0.70;99.90
2010;DHT22;1008;47.404;8.502;2023-02-28T05:05:22;0.50;99.90
2010;DHT22;1008;47.404;8.502;2023-02-28T05:07:48;0.50;99.90
2010;DHT22;1008;47.404;8.502;2023-02-28T05:10:15;0.60;99.90
2010;DHT22;1008;47.404;8.502;2023-02-28T05:12:43;0.60;99.90
2010;DHT22;1008;47.404;8.502;2023-02-28T05:15:13;0.50;99.90
2010;DHT22;1008;47.404;8.502;2023-02-28T05:17:40;0.50;99.90
2010;DHT22;1008;47.404;8.502;2023-02-28T05:20:08;0.50;99.90
2010;DHT22;1008;47.404;8.502;2023-02-28T05:22:37;0.50;99.90
2010;DHT22;1008;47.404;8.502;2023-02-28T05:25:04;0.50;99.90
2010;DHT22;1008;47.404;8.502;2023-02-28T05:27:32;0.60;99.90
2010;DHT22;1008;47.404;8.502;2023-02-28T05:30:00;0.60;99.90
2010;DHT22;1008;47.404;8.502;2023-02-28T05:32:28;0.60;99.90
2010;DHT22;1008;47.404;8.502;2023-02-28T05:34:55;0.60;99.90
2010;DHT22;1008;47.404;8.502;2023-02-28T05:37:22;0.50;99.90
2010;DHT22;1008;47.404;8.502;2023-02-28T05:39:49;0.60;99.90
2010;DHT22;1008;47.404;8.502;2023-02-28T05:42:15;0.50;99.90
2010;DHT22;1008;47.404;8.502;2023-02-28T05:44:42;0.60;99.90
2010;DHT22;1008;47.404;8.502;2023-02-28T05:47:10;0.60;99.90
2010;DHT22;1008;47.404;8.502;2023-02-28T05:49:40;0.60;99.90
2010;DHT22;1008;47.404;8.502;2023-02-28T05:52:07;0.60;99.90
2010;DHT22;1008;47.404;8.502;2023-02-28T05:54:34;0.70;99.90
2010;DHT22;1008;47.404;8.502;2023-02-28T05:57:01;0.60;99.90
2010;DHT22;1008;47.404;8.502;2023-02-28T05:59:28;0.50;99.90
2010;DHT22;1008;47.404;8.502;2023-02-28T06:01:54;0.60;99.90
2010;DHT22;1008;47.404;8.502;2023-02-28T06:04:23;0.70;99.90
2010;DHT22;1008;47.404;8.502;2023-02-28T06:06:50;0.60;99.90
2010;DHT22;1008;47.404;8.502;2023-02-28T06:09:17;0.50;99.90
2010;DHT22;1008;47.404;8.502;2023-02-28T06:11:44;0.60;99.90
2010;DHT22;1008;47.404;8.502;2023-02-28T06:14:14;0.70;99.90
2010;DHT22;1008;47.404;8.502;2023-02-28T06:16:42;0.70;99.90
2010;DHT22;1008;47.404;8.502;2023-02-28T06:19:09;0.50;99.90
2010;DHT22;1008;47.404;8.502;2023-02-28T06:21:37;0.50;99.90
2010;DHT22;1008;47.404;8.502;2023-02-28T06:24:05;0.70;99.90
2010;DHT22;1008;47.404;8.502;2023-02-28T06:26:31;0.70;99.90
2010;DHT22;1008;47.404;8.502;2023-02-28T06:28:58;0.70;99.90
2010;DHT22;1008;47.404;8.502;2023-02-28T06:31:26;0.60;99.90
2010;DHT22;1008;47.404;8.502;2023-02-28T06:33:54;0.70;99.90
2010;DHT22;1008;47.404;8.502;2023-02-28T06:36:21;0.60;99.90
2010;DHT22;1008;47.404;8.502;2023-02-28T06:38:50;0.60;99.90
2010;DHT22;1008;47.404;8.502;2023-02-28T06:41:20;0.50;99.90
2010;DHT22;1008;47.404;8.502;2023-02-28T06:43:47;0.40;99.90
2010;DHT22;1008;47.404;8.502;2023-02-28T06:46:14;0.50;99.90
2010;DHT22;1008;47.404;8.502;2023-02-28T06:48:44;0.50;99.90
2010;DHT22;1008;47.404;8.502;2023-02-28T06:51:14;0.50;99.90
2010;DHT22;1008;47.404;8.502;2023-02-28T06:53:41;0.60;99.90
2010;DHT22;1008;47.404;8.502;2023-02-28T06:56:11;0.70;99.90
2010;DHT22;1008;47.404;8.502;2023-02-28T06:58:38;0.70;99.90
2010;DHT22;1008;47.404;8.502;2023-02-28T07:01:06;0.70;99.90
2010;DHT22;1008;47.404;8.502;2023-02-28T07:03:34;0.70;99.90
2010;DHT22;1008;47.404;8.502;2023-02-28T07:06:00;0.60;99.90
2010;DHT22;1008;47.404;8.502;2023-02-28T07:08:28;0.50;99.90
2010;DHT22;1008;47.404;8.502;2023-02-28T07:10:55;0.50;99.90
2010;DHT22;1008;47.404;8.502;2023-02-28T07:13:23;0.60;99.90
2010;DHT22;1008;47.404;8.502;2023-02-28T07:15:54;0.60;99.90
2010;DHT22;1008;47.404;8.502;2023-02-28T07:18:21;0.60;99.90
2010;DHT22;1008;47.404;8.502;2023-02-28T07:20:47;0.50;99.90
2010;DHT22;1008;47.404;8.502;2023-02-28T07:23:14;0.70;99.90
2010;DHT22;1008;47.404;8.502;2023-02-28T07:25:41;0.60;99.90
2010;DHT22;1008;47.404;8.502;2023-02-28T07:28:07;0.70;99.90
2010;DHT22;1008;47.404;8.502;2023-02-28T07:30:36;0.70;99.90
2010;DHT22;1008;47.404;8.502;2023-02-28T07:33:02;0.70;99.90
2010;DHT22;1008;47.404;8.502;2023-02-28T07:35:29;0.60;99.90
2010;DHT22;1008;47.404;8.502;2023-02-28T07:37:57;0.70;99.90
2010;DHT22;1008;47.404;8.502;2023-02-28T07:40:24;0.70;99.90
2010;DHT22;1008;47.404;8.502;2023-02-28T07:42:51;0.60;99.90
2010;DHT22;1008;47.404;8.502;2023-02-28T07:45:18;0.60;99.90
2010;DHT22;1008;47.404;8.502;2023-02-28T07:47:47;0.70;99.90
2010;DHT22;1008;47.404;8.502;2023-02-28T07:50:15;0.80;99.90
2010;DHT22;1008;47.404;8.502;2023-02-28T07:52:42;0.80;99.90
2010;DHT22;1008;47.404;8.502;2023-02-28T07:55:09;0.80;99.90
2010;DHT22;1008;47.404;8.502;2023-02-28T07:57:36;0.80;99.90
2010;DHT22;1008;47.404;8.502;2023-02-28T08:00:04;0.80;99.90
2010;DHT22;1008;47.404;8.502;2023-02-28T08:02:31;0.90;99.90
2010;DHT22;1008;47.404;8.502;2023-02-28T08:04:59;0.90;99.90
2010;DHT22;1008;47.404;8.502;2023-02-28T08:07:27;0.80;99.90
2010;DHT22;1008;47.404;8.502;2023-02-28T08:09:53;0.90;99.90
2010;DHT22;1008;47.404;8.502;2023-02-28T08:12:20;1.00;99.90
2010;DHT22;1008;47.404;8.502;2023-02-28T08:14:47;1.00;99.90
2010;DHT22;1008;47.404;8.502;2023-02-28T08:17:14;1.00;99.90
2010;DHT22;1008;47.404;8.502;2023-02-28T08:19:40;1.00;99.90
2010;DHT22;1008;47.404;8.502;2023-02-28T08:22:09;1.00;99.90
2010;DHT22;1008;47.404;8.502;2023-02-28T08:24:35;0.90;99.90
2010;DHT22;1008;47.404;8.502;2023-02-28T08:27:02;1.00;99.90
2010;DHT22;1008;47.404;8.502;2023-02-28T08:29:29;1.00;99.90
2010;DHT22;1008;47.404;8.502;2023-02-28T08:31:56;1.00;99.90
2010;DHT22;1008;47.404;8.502;2023-02-28T08:34:24;1.10;99.90
2010;DHT22;1008;47.404;8.502;2023-02-28T08:36:51;1.20;99.90
2010;DHT22;1008;47.404;8.502;2023-02-28T08:39:19;1.30;99.90
2010;DHT22;1008;47.404;8.502;2023-02-28T08:41:46;1.30;99.90
2010;DHT22;1008;47.404;8.502;2023-02-28T08:44:13;1.20;99.90
2010;DHT22;1008;47.404;8.502;2023-02-28T08:46:40;1.10;99.90
2010;DHT22;1008;47.404;8.502;2023-02-28T08:49:06;1.30;99.90
2010;DHT22;1008;47.404;8.502;2023-02-28T08:51:35;1.10;99.90
2010;DHT22;1008;47.404;8.502;2023-02-28T08:54:01;1.10;99.90
2010;DHT22;1008;47.404;8.502;2023-02-28T08:56:32;1.30;99.90
2010;DHT22;1008;47.404;8.502;2023-02-28T08:58:59;1.30;99.90
2010;DHT22;1008;47.404;8.502;2023-02-28T09:01:27;1.40;99.90
2010;DHT22;1008;47.404;8.502;2023-02-28T09:03:55;1.40;99.90
2010;DHT22;1008;47.404;8.502;2023-02-28T09:06:24;1.50;99.90
2010;DHT22;1008;47.404;8.502;2023-02-28T09:08:51;1.40;99.90
2010;DHT22;1008;47.404;8.502;2023-02-28T09:11:20;1.40;99.90
2010;DHT22;1008;47.404;8.502;2023-02-28T09:13:48;1.50;99.90
2010;DHT22;1008;47.404;8.502;2023-02-28T09:16:16;1.60;99.90
2010;DHT22;1008;47.404;8.502;2023-02-28T09:18:44;1.60;99.90
2010;DHT22;1008;47.404;8.502;2023-02-28T09:21:13;1.60;99.90
2010;DHT22;1008;47.404;8.502;2023-02-28T09:23:40;1.70;99.90
2010;DHT22;1008;47.404;8.502;2023-02-28T09:26:08;1.80;99.90
2010;DHT22;1008;47.404;8.502;2023-02-28T09:28:39;1.80;99.90
2010;DHT22;1008;47.404;8.502;2023-02-28T09:31:10;1.80;99.90
2010;DHT22;1008;47.404;8.502;2023-02-28T09:33:38;1.90;99.90
2010;DHT22;1008;47.404;8.502;2023-02-28T09:36:05;1.80;99.90
2010;DHT22;1008;47.404;8.502;2023-02-28T09:38:32;1.80;99.90
2010;DHT22;1008;47.404;8.502;2023-02-28T09:41:01;1.90;99.90
2010;DHT22;1008;47.404;8.502;2023-02-28T09:43:34;1.90;99.90
2010;DHT22;1008;47.404;8.502;2023-02-28T09:46:08;1.80;99.90
2010;DHT22;1008;47.404;8.502;2023-02-28T09:48:42;1.90;99.90
2010;DHT22;1008;47.404;8.502;2023-02-28T09:51:16;2.00;99.90
2010;DHT22;1008;47.404;8.502;2023-02-28T09:53:49;2.10;99.90
2010;DHT22;1008;47.404;8.502;2023-02-28T09:56:20;2.20;99.90
2010;DHT22;1008;47.404;8.502;2023-02-28T09:58:53;2.30;99.90
2010;DHT22;1008;47.404;8.502;2023-02-28T10:01:27;2.20;99.90
2010;DHT22;1008;47.404;8.502;2023-02-28T10:04:00;2.10;99.90
2010;DHT22;1008;47.404;8.502;2023-02-28T10:06:32;2.00;99.90
2010;DHT22;1008;47.404;8.502;2023-02-28T10:09:03;2.00;99.90
2010;DHT22;1008;47.404;8.502;2023-02-28T10:11:33;2.00;99.90
2010;DHT22;1008;47.404;8.502;2023-02-28T10:14:06;2.10;99.90
2010;DHT22;1008;47.404;8.502;2023-02-28T10:16:40;2.20;99.90
2010;DHT22;1008;47.404;8.502;2023-02-28T10:19:14;2.30;99.90
2010;DHT22;1008;47.404;8.502;2023-02-28T10:21:46;2.40;99.90
2010;DHT22;1008;47.404;8.502;2023-02-28T10:24:20;2.50;99.90
2010;DHT22;1008;47.404;8.502;2023-02-28T10:26:48;2.70;99.90
2010;DHT22;1008;47.404;8.502;2023-02-28T10:29:15;2.70;99.90
2010;DHT22;1008;47.404;8.502;2023-02-28T10:31:43;2.80;99.90
2010;DHT22;1008;47.404;8.502;2023-02-28T10:34:12;2.90;99.90
2010;DHT22;1008;47.404;8.502;2023-02-28T10:36:39;2.70;99.90
2010;DHT22;1008;47.404;8.502;2023-02-28T10:39:39;2.80;99.90
2010;DHT22;1008;47.404;8.502;2023-02-28T10:42:22;2.90;99.90
2010;DHT22;1008;47.404;8.502;2023-02-28T10:45:05;2.90;99.90
2010;DHT22;1008;47.404;8.502;2023-02-28T10:47:34;2.90;99.90
2010;DHT22;1008;47.404;8.502;2023-02-28T10:50:02;2.90;99.90
2010;DHT22;1008;47.404;8.502;2023-02-28T10:52:35;2.90;99.90
2010;DHT22;1008;47.404;8.502;2023-02-28T10:55:20;2.90;99.90
2010;DHT22;1008;47.404;8.502;2023-02-28T10:57:48;3.00;99.90
2010;DHT22;1008;47.404;8.502;2023-02-28T11:00:18;2.90;99.90
2010;DHT22;1008;47.404;8.502;2023-02-28T11:02:46;3.00;99.90
2010;DHT22;1008;47.404;8.502;2023-02-28T11:05:25;3.00;99.90
2010;DHT22;1008;47.404;8.502;2023-02-28T11:07:53;3.10;99.90
2010;DHT22;1008;47.404;8.502;2023-02-28T11:10:25;3.00;99.90
2010;DHT22;1008;47.404;8.502;2023-02-28T11:12:55;3.00;99.90
2010;DHT22;1008;47.404;8.502;2023-02-28T11:15:24;2.80;99.90
2010;DHT22;1008;47.404;8.502;2023-02-28T11:17:58;2.70;99.90
2010;DHT22;1008;47.404;8.502;2023-02-28T11:20:28;2.90;99.90
2010;DHT22;1008;47.404;8.502;2023-02-28T11:22:56;2.90;99.90
2010;DHT22;1008;47.404;8.502;2023-02-28T11:25:25;3.20;99.90
2010;DHT22;1008;47.404;8.502;2023-02-28T11:27:54;2.90;99.90
2010;DHT22;1008;47.404;8.502;2023-02-28T11:30:28;3.00;99.90
2010;DHT22;1008;47.404;8.502;2023-02-28T11:32:56;2.90;99.90
2010;DHT22;1008;47.404;8.502;2023-02-28T11:35:26;2.80;99.90
2010;DHT22;1008;47.404;8.502;2023-02-28T11:37:53;2.60;99.90
2010;DHT22;1008;47.404;8.502;2023-02-28T11:40:28;2.60;99.90
2010;DHT22;1008;47.404;8.502;2023-02-28T11:43:01;2.70;99.90
2010;DHT22;1008;47.404;8.502;2023-02-28T11:45:45;2.60;99.90
2010;DHT22;1008;47.404;8.502;2023-02-28T11:48:21;2.60;99.90
2010;DHT22;1008;47.404;8.502;2023-02-28T11:50:58;2.60;99.90
2010;DHT22;1008;47.404;8.502;2023-02-28T11:56:25;2.50;99.90
2010;DHT22;1008;47.404;8.502;2023-02-28T11:59:09;2.80;99.90
2010;DHT22;1008;47.404;8.502;2023-02-28T12:01:58;2.70;99.90
2010;DHT22;1008;47.404;8.502;2023-02-28T12:04:36;2.60;99.90
2010;DHT22;1008;47.404;8.502;2023-02-28T12:07:18;2.80;99.90
2010;DHT22;1008;47.404;8.502;2023-02-28T12:09:58;2.90;99.90
2010;DHT22;1008;47.404;8.502;2023-02-28T12:12:38;3.10;99.90
2010;DHT22;1008;47.404;8.502;2023-02-28T12:15:43;3.00;99.90
2010;DHT22;1008;47.404;8.502;2023-02-28T12:18:23;2.80;99.90
2010;DHT22;1008;47.404;8.502;2023-02-28T12:21:01;2.90;99.90
2010;DHT22;1008;47.404;8.502;2023-02-28T12:23:52;3.00;99.90
2010;DHT22;1008;47.404;8.502;2023-02-28T12:26:31;2.80;99.90
2010;DHT22;1008;47.404;8.502;2023-02-28T12:29:03;3.10;99.90
2010;DHT22;1008;47.404;8.502;2023-02-28T12:31:34;3.30;99.90
2010;DHT22;1008;47.404;8.502;2023-02-28T12:34:06;3.30;99.90
2010;DHT22;1008;47.404;8.502;2023-02-28T12:36:36;3.30;99.90
2010;DHT22;1008;47.404;8.502;2023-02-28T12:39:09;3.20;99.90
2010;DHT22;1008;47.404;8.502;2023-02-28T12:41:42;3.10;99.90
2010;DHT22;1008;47.404;8.502;2023-02-28T12:44:13;2.50;99.90
2010;DHT22;1008;47.404;8.502;2023-02-28T12:46:45;2.50;99.90
2010;DHT22;1008;47.404;8.502;2023-02-28T12:49:17;2.60;99.90
2010;DHT22;1008;47.404;8.502;2023-02-28T12:51:47;2.80;99.90
2010;DHT22;1008;47.404;8.502;2023-02-28T12:54:20;2.80;99.90
2010;DHT22;1008;47.404;8.502;2023-02-28T12:56:53;2.80;99.90
2010;DHT22;1008;47.404;8.502;2023-02-28T12:59:25;2.90;99.90
2010;DHT22;1008;47.404;8.502;2023-02-28T13:02:02;3.00;99.90
2010;DHT22;1008;47.404;8.502;2023-02-28T13:05:01;3.10;99.90
2010;DHT22;1008;47.404;8.502;2023-02-28T13:07:51;3.10;99.90
2010;DHT22;1008;47.404;8.502;2023-02-28T13:10:18;3.20;99.90
2010;DHT22;1008;47.404;8.502;2023-02-28T13:12:49;3.20;99.90
2010;DHT22;1008;47.404;8.502;2023-02-28T13:15:19;3.20;99.90
2010;DHT22;1008;47.404;8.502;2023-02-28T13:17:50;3.20;99.90
2010;DHT22;1008;47.404;8.502;2023-02-28T13:20:19;3.30;99.90
2010;DHT22;1008;47.404;8.502;2023-02-28T13:22:49;3.20;99.90
2010;DHT22;1008;47.404;8.502;2023-02-28T13:34:15;3.00;99.90
2010;DHT22;1008;47.404;8.502;2023-02-28T13:36:42;2.80;99.90
2010;DHT22;1008;47.404;8.502;2023-02-28T13:39:48;2.80;99.90
2010;DHT22;1008;47.404;8.502;2023-02-28T13:42:33;2.90;99.90
2010;DHT22;1008;47.404;8.502;2023-02-28T13:45:23;3.10;99.90
2010;DHT22;1008;47.404;8.502;2023-02-28T13:47:54;3.10;99.90
2010;DHT22;1008;47.404;8.502;2023-02-28T13:50:27;3.20;99.90
2010;DHT22;1008;47.404;8.502;2023-02-28T13:53:12;3.20;99.90
2010;DHT22;1008;47.404;8.502;2023-02-28T13:55:46;3.20;99.90
2010;DHT22;1008;47.404;8.502;2023-02-28T13:58:32;3.00;99.90
2010;DHT22;1008;47.404;8.502;2023-02-28T14:01:15;3.00;99.90
2010;DHT22;1008;47.404;8.502;2023-02-28T14:04:04;2.90;99.90
2010;DHT22;1008;47.404;8.502;2023-02-28T14:06:34;2.90;99.90
2010;DHT22;1008;47.404;8.502;2023-02-28T14:09:05;2.80;99.90
2010;DHT22;1008;47.404;8.502;2023-02-28T14:11:37;2.70;99.90
2010;DHT22;1008;47.404;8.502;2023-02-28T14:14:06;2.70;99.90
2010;DHT22;1008;47.404;8.502;2023-02-28T14:16:39;2.40;99.90
2010;DHT22;1008;47.404;8.502;2023-02-28T14:19:12;2.40;99.90
2010;DHT22;1008;47.404;8.502;2023-02-28T14:21:50;2.40;99.90
2010;DHT22;1008;47.404;8.502;2023-02-28T14:27:27;2.40;99.90
2010;DHT22;1008;47.404;8.502;2023-02-28T14:32:58;2.40;99.90
2010;DHT22;1008;47.404;8.502;2023-02-28T14:35:45;2.30;99.90
2010;DHT22;1008;47.404;8.502;2023-02-28T14:38:17;2.40;99.90
2010;DHT22;1008;47.404;8.502;2023-02-28T14:40:47;2.40;99.90
2010;DHT22;1008;47.404;8.502;2023-02-28T14:43:21;2.50;99.90
2010;DHT22;1008;47.404;8.502;2023-02-28T14:45:53;2.50;99.90
2010;DHT22;1008;47.404;8.502;2023-02-28T14:48:22;2.30;99.90
2010;DHT22;1008;47.404;8.502;2023-02-28T14:50:51;2.40;99.90
2010;DHT22;1008;47.404;8.502;2023-02-28T14:53:22;2.20;99.90
2010;DHT22;1008;47.404;8.502;2023-02-28T14:55:49;2.20;99.90
2010;DHT22;1008;47.404;8.502;2023-02-28T14:58:24;2.20;99.90
2010;DHT22;1008;47.404;8.502;2023-02-28T15:00:52;2.20;99.90
2010;DHT22;1008;47.404;8.502;2023-02-28T15:03:21;2.00;99.90
2010;DHT22;1008;47.404;8.502;2023-02-28T15:05:52;2.00;99.90
2010;DHT22;1008;47.404;8.502;2023-02-28T15:08:19;1.90;99.90
2010;DHT22;1008;47.404;8.502;2023-02-28T15:10:51;1.80;99.90
2010;DHT22;1008;47.404;8.502;2023-02-28T15:13:20;2.10;99.90
2010;DHT22;1008;47.404;8.502;2023-02-28T15:15:51;1.90;99.90
2010;DHT22;1008;47.404;8.502;2023-02-28T15:18:29;2.00;99.90
2010;DHT22;1008;47.404;8.502;2023-02-28T15:21:00;2.20;99.90
2010;DHT22;1008;47.404;8.502;2023-02-28T15:23:28;2.20;99.90
2010;DHT22;1008;47.404;8.502;2023-02-28T15:25:55;2.10;99.90
2010;DHT22;1008;47.404;8.502;2023-02-28T15:28:23;2.00;99.90
2010;DHT22;1008;47.404;8.502;2023-02-28T15:30:54;2.00;99.90
2010;DHT22;1008;47.404;8.502;2023-02-28T15:33:22;2.10;99.90
2010;DHT22;1008;47.404;8.502;2023-02-28T15:35:50;2.20;99.90
2010;DHT22;1008;47.404;8.502;2023-02-28T15:38:22;2.20;99.90
2010;DHT22;1008;47.404;8.502;2023-02-28T15:40:51;2.20;99.90
2010;DHT22;1008;47.404;8.502;2023-02-28T15:43:24;2.30;99.90
2010;DHT22;1008;47.404;8.502;2023-02-28T15:45:56;2.20;99.90
2010;DHT22;1008;47.404;8.502;2023-02-28T15:48:25;2.10;99.90
2010;DHT22;1008;47.404;8.502;2023-02-28T15:50:54;2.00;99.90
2010;DHT22;1008;47.404;8.502;2023-02-28T15:53:23;2.00;99.90
2010;DHT22;1008;47.404;8.502;2023-02-28T15:55:58;2.10;99.90
2010;DHT22;1008;47.404;8.502;2023-02-28T15:58:25;2.10;99.90
2010;DHT22;1008;47.404;8.502;2023-02-28T16:01:16;1.90;99.90
2010;DHT22;1008;47.404;8.502;2023-02-28T16:03:46;2.10;99.90
2010;DHT22;1008;47.404;8.502;2023-02-28T16:06:30;2.00;99.90
2010;DHT22;1008;47.404;8.502;2023-02-28T16:08:58;2.00;99.90
2010;DHT22;1008;47.404;8.502;2023-02-28T16:11:25;2.00;99.90
2010;DHT22;1008;47.404;8.502;2023-02-28T16:13:52;2.00;99.90
2010;DHT22;1008;47.404;8.502;2023-02-28T16:16:22;2.00;99.90
2010;DHT22;1008;47.404;8.502;2023-02-28T16:18:50;1.90;99.90
2010;DHT22;1008;47.404;8.502;2023-02-28T16:21:17;1.90;99.90
2010;DHT22;1008;47.404;8.502;2023-02-28T16:23:44;1.90;99.90
2010;DHT22;1008;47.404;8.502;2023-02-28T16:26:18;1.80;99.90
2010;DHT22;1008;47.404;8.502;2023-02-28T16:28:46;1.90;99.90
2010;DHT22;1008;47.404;8.502;2023-02-28T16:31:13;2.00;99.90
2010;DHT22;1008;47.404;8.502;2023-02-28T16:33:44;1.80;99.90
2010;DHT22;1008;47.404;8.502;2023-02-28T16:36:14;1.70;99.90
2010;DHT22;1008;47.404;8.502;2023-02-28T16:38:41;1.70;99.90
2010;DHT22;1008;47.404;8.502;2023-02-28T16:41:12;1.80;99.90
2010;DHT22;1008;47.404;8.502;2023-02-28T16:43:42;1.80;99.90
2010;DHT22;1008;47.404;8.502;2023-02-28T16:46:11;1.60;99.90
2010;DHT22;1008;47.404;8.502;2023-02-28T16:48:38;1.80;99.90
2010;DHT22;1008;47.404;8.502;2023-02-28T16:51:11;1.70;99.90
2010;DHT22;1008;47.404;8.502;2023-02-28T16:53:37;1.90;99.90
2010;DHT22;1008;47.404;8.502;2023-02-28T16:56:05;2.00;99.90
2010;DHT22;1008;47.404;8.502;2023-02-28T16:58:32;2.10;99.90
2010;DHT22;1008;47.404;8.502;2023-02-28T17:01:01;2.10;99.90
2010;DHT22;1008;47.404;8.502;2023-02-28T17:03:28;2.00;99.90
2010;DHT22;1008;47.404;8.502;2023-02-28T17:05:55;2.20;99.90